sensor_id;sensor_type;location;lat;lon;timestamp;P1;durP1;ratioP1;P2;durP2;ratioP2
11827;SDS011;5971;49.646;8.568;2023-07-29T00:02:42;9.23;;;3.85;;
11827;SDS011;5971;49.646;8.568;2023-07-29T00:05:43;7.28;;;3.38;;
11827;SDS011;5971;49.646;8.568;2023-07-29T00:08:45;11.02;;;4.07;;
11827;SDS011;5971;49.646;8.568;2023-07-29T00:11:46;8.52;;;3.78;;
11827;SDS011;5971;49.646;8.568;2023-07-29T00:14:48;6.72;;;3.13;;
11827;SDS011;5971;49.646;8.568;2023-07-29T00:17:49;8.82;;;4.03;;
11827;SDS011;5971;49.646;8.568;2023-07-29T00:20:50;8.40;;;3.58;;
11827;SDS011;5971;49.646;8.568;2023-07-29T00:23:52;8.18;;;3.45;;
11827;SDS011;5971;49.646;8.568;2023-07-29T00:26:53;7.05;;;3.28;;
11827;SDS011;5971;49.646;8.568;2023-07-29T00:29:55;8.20;;;3.55;;
11827;SDS011;5971;49.646;8.568;2023-07-29T00:32:56;8.50;;;3.65;;
11827;SDS011;5971;49.646;8.568;2023-07-29T00:35:57;8.65;;;4.32;;
11827;SDS011;5971;49.646;8.568;2023-07-29T00:39:02;5.55;;;3.17;;
11827;SDS011;5971;49.646;8.568;2023-07-29T00:42:04;7.13;;;3.05;;
11827;SDS011;5971;49.646;8.568;2023-07-29T00:45:06;6.63;;;2.90;;
11827;SDS011;5971;49.646;8.568;2023-07-29T00:48:08;5.43;;;3.22;;
11827;SDS011;5971;49.646;8.568;2023-07-29T00:51:10;6.07;;;2.80;;
11827;SDS011;5971;49.646;8.568;2023-07-29T00:54:11;5.30;;;2.80;;
11827;SDS011;5971;49.646;8.568;2023-07-29T00:57:13;5.28;;;2.95;;
11827;SDS011;5971;49.646;8.568;2023-07-29T01:00:15;5.85;;;2.90;;
11827;SDS011;5971;49.646;8.568;2023-07-29T01:03:18;4.50;;;2.70;;
11827;SDS011;5971;49.646;8.568;2023-07-29T01:15:53;5.50;;;2.45;;
11827;SDS011;5971;49.646;8.568;2023-07-29T01:18:55;5.57;;;2.53;;
11827;SDS011;5971;49.646;8.568;2023-07-29T01:21:57;6.93;;;2.13;;
11827;SDS011;5971;49.646;8.568;2023-07-29T01:24:59;4.95;;;2.40;;
11827;SDS011;5971;49.646;8.568;2023-07-29T01:28:01;5.60;;;2.20;;
11827;SDS011;5971;49.646;8.568;2023-07-29T01:31:10;4.10;;;2.33;;
11827;SDS011;5971;49.646;8.568;2023-07-29T01:34:17;4.40;;;2.20;;
11827;SDS011;5971;49.646;8.568;2023-07-29T01:37:25;3.63;;;2.15;;
11827;SDS011;5971;49.646;8.568;2023-07-29T01:40:27;3.35;;;2.00;;
11827;SDS011;5971;49.646;8.568;2023-07-29T01:43:29;4.25;;;2.10;;
11827;SDS011;5971;49.646;8.568;2023-07-29T01:46:32;4.80;;;2.13;;
11827;SDS011;5971;49.646;8.568;2023-07-29T01:49:34;3.58;;;2.20;;
11827;SDS011;5971;49.646;8.568;2023-07-29T01:52:35;4.50;;;2.78;;
11827;SDS011;5971;49.646;8.568;2023-07-29T01:55:37;3.20;;;2.08;;
11827;SDS011;5971;49.646;8.568;2023-07-29T01:58:38;4.07;;;2.03;;
11827;SDS011;5971;49.646;8.568;2023-07-29T02:01:40;3.63;;;2.22;;
11827;SDS011;5971;49.646;8.568;2023-07-29T02:04:41;3.50;;;2.03;;
11827;SDS011;5971;49.646;8.568;2023-07-29T02:07:42;3.72;;;2.38;;
11827;SDS011;5971;49.646;8.568;2023-07-29T02:10:44;4.10;;;1.98;;
11827;SDS011;5971;49.646;8.568;2023-07-29T02:13:46;4.57;;;2.45;;
11827;SDS011;5971;49.646;8.568;2023-07-29T02:16:48;3.95;;;2.10;;
11827;SDS011;5971;49.646;8.568;2023-07-29T02:19:49;4.07;;;2.25;;
11827;SDS011;5971;49.646;8.568;2023-07-29T02:22:50;5.10;;;2.20;;
11827;SDS011;5971;49.646;8.568;2023-07-29T02:25:52;3.45;;;2.00;;
11827;SDS011;5971;49.646;8.568;2023-07-29T02:28:53;3.47;;;2.00;;
11827;SDS011;5971;49.646;8.568;2023-07-29T02:31:54;3.95;;;1.98;;
11827;SDS011;5971;49.646;8.568;2023-07-29T02:34:56;5.68;;;2.88;;
11827;SDS011;5971;49.646;8.568;2023-07-29T02:37:57;4.57;;;2.58;;
11827;SDS011;5971;49.646;8.568;2023-07-29T02:40:58;3.85;;;1.85;;
11827;SDS011;5971;49.646;8.568;2023-07-29T02:44:01;3.47;;;1.90;;
11827;SDS011;5971;49.646;8.568;2023-07-29T02:47:02;4.70;;;2.45;;
11827;SDS011;5971;49.646;8.568;2023-07-29T02:50:04;4.18;;;2.20;;
11827;SDS011;5971;49.646;8.568;2023-07-29T02:53:06;4.30;;;2.35;;
11827;SDS011;5971;49.646;8.568;2023-07-29T02:56:07;4.65;;;2.55;;
11827;SDS011;5971;49.646;8.568;2023-07-29T02:59:10;5.60;;;2.65;;
11827;SDS011;5971;49.646;8.568;2023-07-29T03:02:11;4.30;;;2.25;;
11827;SDS011;5971;49.646;8.568;2023-07-29T03:05:13;4.65;;;2.28;;
11827;SDS011;5971;49.646;8.568;2023-07-29T03:08:14;4.75;;;2.58;;
11827;SDS011;5971;49.646;8.568;2023-07-29T03:11:16;5.55;;;2.47;;
11827;SDS011;5971;49.646;8.568;2023-07-29T03:14:17;4.53;;;2.08;;
11827;SDS011;5971;49.646;8.568;2023-07-29T03:17:19;7.38;;;2.63;;
11827;SDS011;5971;49.646;8.568;2023-07-29T03:20:20;5.57;;;2.50;;
11827;SDS011;5971;49.646;8.568;2023-07-29T03:23:21;4.18;;;2.35;;
11827;SDS011;5971;49.646;8.568;2023-07-29T03:29:27;4.80;;;2.53;;
11827;SDS011;5971;49.646;8.568;2023-07-29T03:32:28;5.57;;;2.45;;
11827;SDS011;5971;49.646;8.568;2023-07-29T03:35:29;4.75;;;2.50;;
11827;SDS011;5971;49.646;8.568;2023-07-29T03:38:31;6.63;;;2.72;;
11827;SDS011;5971;49.646;8.568;2023-07-29T03:41:34;6.35;;;2.28;;
11827;SDS011;5971;49.646;8.568;2023-07-29T03:44:35;4.90;;;2.28;;
11827;SDS011;5971;49.646;8.568;2023-07-29T03:47:36;4.13;;;2.42;;
11827;SDS011;5971;49.646;8.568;2023-07-29T03:50:38;4.40;;;2.40;;
11827;SDS011;5971;49.646;8.568;2023-07-29T03:53:39;4.82;;;2.38;;
11827;SDS011;5971;49.646;8.568;2023-07-29T03:56:41;5.20;;;2.50;;
11827;SDS011;5971;49.646;8.568;2023-07-29T03:59:42;3.72;;;2.08;;
11827;SDS011;5971;49.646;8.568;2023-07-29T04:02:44;3.78;;;2.13;;
11827;SDS011;5971;49.646;8.568;2023-07-29T04:05:46;4.30;;;2.13;;
11827;SDS011;5971;49.646;8.568;2023-07-29T04:08:48;4.38;;;2.28;;
11827;SDS011;5971;49.646;8.568;2023-07-29T04:11:49;4.13;;;2.40;;
11827;SDS011;5971;49.646;8.568;2023-07-29T04:14:51;4.05;;;2.33;;
11827;SDS011;5971;49.646;8.568;2023-07-29T04:17:53;4.28;;;2.30;;
11827;SDS011;5971;49.646;8.568;2023-07-29T04:20:54;5.60;;;2.05;;
11827;SDS011;5971;49.646;8.568;2023-07-29T04:23:55;5.68;;;2.35;;
11827;SDS011;5971;49.646;8.568;2023-07-29T04:26:57;5.80;;;2.33;;
11827;SDS011;5971;49.646;8.568;2023-07-29T04:29:58;5.50;;;3.05;;
11827;SDS011;5971;49.646;8.568;2023-07-29T04:32:59;4.88;;;2.22;;
11827;SDS011;5971;49.646;8.568;2023-07-29T04:36:01;3.72;;;2.13;;
11827;SDS011;5971;49.646;8.568;2023-07-29T04:39:02;4.07;;;2.47;;
11827;SDS011;5971;49.646;8.568;2023-07-29T04:42:04;4.00;;;2.20;;
11827;SDS011;5971;49.646;8.568;2023-07-29T04:45:05;3.88;;;2.38;;
11827;SDS011;5971;49.646;8.568;2023-07-29T04:48:07;3.90;;;2.42;;
11827;SDS011;5971;49.646;8.568;2023-07-29T04:51:08;5.13;;;2.40;;
11827;SDS011;5971;49.646;8.568;2023-07-29T04:54:09;4.43;;;2.40;;
11827;SDS011;5971;49.646;8.568;2023-07-29T04:57:11;3.50;;;2.10;;
11827;SDS011;5971;49.646;8.568;2023-07-29T05:00:12;4.60;;;2.30;;
11827;SDS011;5971;49.646;8.568;2023-07-29T05:03:14;5.35;;;2.20;;
11827;SDS011;5971;49.646;8.568;2023-07-29T05:06:16;4.38;;;2.03;;
11827;SDS011;5971;49.646;8.568;2023-07-29T05:09:18;3.30;;;2.00;;
11827;SDS011;5971;49.646;8.568;2023-07-29T05:12:19;3.88;;;1.83;;
11827;SDS011;5971;49.646;8.568;2023-07-29T05:15:21;4.43;;;2.25;;
11827;SDS011;5971;49.646;8.568;2023-07-29T05:18:22;4.35;;;1.98;;
11827;SDS011;5971;49.646;8.568;2023-07-29T05:21:24;4.25;;;2.13;;
11827;SDS011;5971;49.646;8.568;2023-07-29T05:24:25;5.00;;;2.42;;
11827;SDS011;5971;49.646;8.568;2023-07-29T05:27:27;4.05;;;2.10;;
11827;SDS011;5971;49.646;8.568;2023-07-29T05:30:28;3.80;;;2.22;;
11827;SDS011;5971;49.646;8.568;2023-07-29T05:33:32;3.70;;;2.30;;
11827;SDS011;5971;49.646;8.568;2023-07-29T05:36:34;3.92;;;2.17;;
11827;SDS011;5971;49.646;8.568;2023-07-29T05:39:35;4.22;;;2.25;;
11827;SDS011;5971;49.646;8.568;2023-07-29T05:42:37;4.57;;;2.40;;
11827;SDS011;5971;49.646;8.568;2023-07-29T05:45:38;3.65;;;2.00;;
11827;SDS011;5971;49.646;8.568;2023-07-29T05:48:39;4.03;;;2.03;;
11827;SDS011;5971;49.646;8.568;2023-07-29T05:51:41;4.65;;;2.47;;
11827;SDS011;5971;49.646;8.568;2023-07-29T05:54:42;4.45;;;2.90;;
11827;SDS011;5971;49.646;8.568;2023-07-29T05:57:44;4.60;;;2.25;;
11827;SDS011;5971;49.646;8.568;2023-07-29T06:00:45;3.72;;;2.17;;
11827;SDS011;5971;49.646;8.568;2023-07-29T06:03:46;3.28;;;2.25;;
11827;SDS011;5971;49.646;8.568;2023-07-29T06:06:50;3.88;;;2.40;;
11827;SDS011;5971;49.646;8.568;2023-07-29T06:09:51;3.50;;;2.28;;
11827;SDS011;5971;49.646;8.568;2023-07-29T06:12:54;4.55;;;2.15;;
11827;SDS011;5971;49.646;8.568;2023-07-29T06:15:56;4.93;;;2.85;;
11827;SDS011;5971;49.646;8.568;2023-07-29T06:18:57;3.92;;;2.65;;
11827;SDS011;5971;49.646;8.568;2023-07-29T06:21:59;5.63;;;2.58;;
11827;SDS011;5971;49.646;8.568;2023-07-29T06:25:05;5.03;;;2.63;;
11827;SDS011;5971;49.646;8.568;2023-07-29T06:28:07;4.55;;;2.65;;
11827;SDS011;5971;49.646;8.568;2023-07-29T06:31:08;3.78;;;2.38;;
11827;SDS011;5971;49.646;8.568;2023-07-29T06:34:09;4.32;;;2.17;;
11827;SDS011;5971;49.646;8.568;2023-07-29T06:37:11;4.03;;;2.13;;
11827;SDS011;5971;49.646;8.568;2023-07-29T06:40:12;3.63;;;2.17;;
11827;SDS011;5971;49.646;8.568;2023-07-29T06:43:13;4.38;;;2.58;;
11827;SDS011;5971;49.646;8.568;2023-07-29T06:46:15;3.47;;;2.25;;
11827;SDS011;5971;49.646;8.568;2023-07-29T06:49:16;5.53;;;2.25;;
11827;SDS011;5971;49.646;8.568;2023-07-29T06:52:17;4.60;;;2.00;;
11827;SDS011;5971;49.646;8.568;2023-07-29T06:55:19;2.95;;;2.05;;
11827;SDS011;5971;49.646;8.568;2023-07-29T06:58:21;3.00;;;1.98;;
11827;SDS011;5971;49.646;8.568;2023-07-29T07:01:22;3.72;;;2.30;;
11827;SDS011;5971;49.646;8.568;2023-07-29T07:04:23;3.53;;;2.03;;
11827;SDS011;5971;49.646;8.568;2023-07-29T07:07:25;3.35;;;1.98;;
11827;SDS011;5971;49.646;8.568;2023-07-29T07:10:26;4.38;;;2.35;;
11827;SDS011;5971;49.646;8.568;2023-07-29T07:13:28;3.45;;;2.20;;
11827;SDS011;5971;49.646;8.568;2023-07-29T07:16:30;5.07;;;2.20;;
11827;SDS011;5971;49.646;8.568;2023-07-29T07:19:32;3.33;;;1.88;;
11827;SDS011;5971;49.646;8.568;2023-07-29T07:22:33;4.03;;;1.92;;
11827;SDS011;5971;49.646;8.568;2023-07-29T07:25:34;3.75;;;2.35;;
11827;SDS011;5971;49.646;8.568;2023-07-29T07:28:36;5.13;;;2.28;;
11827;SDS011;5971;49.646;8.568;2023-07-29T07:31:37;4.68;;;2.50;;
11827;SDS011;5971;49.646;8.568;2023-07-29T07:34:39;4.63;;;2.47;;
11827;SDS011;5971;49.646;8.568;2023-07-29T07:37:40;5.97;;;3.47;;
11827;SDS011;5971;49.646;8.568;2023-07-29T07:40:41;7.78;;;4.13;;
11827;SDS011;5971;49.646;8.568;2023-07-29T07:43:43;6.47;;;4.10;;
11827;SDS011;5971;49.646;8.568;2023-07-29T07:46:44;5.50;;;3.63;;
11827;SDS011;5971;49.646;8.568;2023-07-29T07:49:46;6.03;;;3.58;;
11827;SDS011;5971;49.646;8.568;2023-07-29T07:52:47;5.70;;;4.10;;
11827;SDS011;5971;49.646;8.568;2023-07-29T07:55:48;5.50;;;3.55;;
11827;SDS011;5971;49.646;8.568;2023-07-29T07:58:50;4.22;;;2.88;;
11827;SDS011;5971;49.646;8.568;2023-07-29T08:01:51;4.55;;;2.40;;
11827;SDS011;5971;49.646;8.568;2023-07-29T08:04:53;5.13;;;2.78;;
11827;SDS011;5971;49.646;8.568;2023-07-29T08:07:56;3.85;;;2.30;;
11827;SDS011;5971;49.646;8.568;2023-07-29T08:10:58;2.65;;;1.20;;
11827;SDS011;5971;49.646;8.568;2023-07-29T08:13:59;2.58;;;1.40;;
11827;SDS011;5971;49.646;8.568;2023-07-29T08:17:01;4.85;;;1.35;;
11827;SDS011;5971;49.646;8.568;2023-07-29T08:20:03;2.85;;;1.40;;
11827;SDS011;5971;49.646;8.568;2023-07-29T08:23:04;2.88;;;1.30;;
11827;SDS011;5971;49.646;8.568;2023-07-29T08:26:06;2.15;;;1.02;;
11827;SDS011;5971;49.646;8.568;2023-07-29T08:29:09;2.72;;;1.50;;
11827;SDS011;5971;49.646;8.568;2023-07-29T08:32:10;2.50;;;1.50;;
11827;SDS011;5971;49.646;8.568;2023-07-29T08:35:11;2.33;;;1.10;;
11827;SDS011;5971;49.646;8.568;2023-07-29T08:38:13;2.75;;;1.10;;
11827;SDS011;5971;49.646;8.568;2023-07-29T08:41:31;3.28;;;1.10;;
11827;SDS011;5971;49.646;8.568;2023-07-29T08:44:41;1.77;;;0.93;;
11827;SDS011;5971;49.646;8.568;2023-07-29T08:47:42;1.63;;;1.00;;
11827;SDS011;5971;49.646;8.568;2023-07-29T08:50:44;2.25;;;0.70;;
11827;SDS011;5971;49.646;8.568;2023-07-29T08:53:46;2.45;;;0.73;;
11827;SDS011;5971;49.646;8.568;2023-07-29T08:56:48;1.83;;;0.90;;
11827;SDS011;5971;49.646;8.568;2023-07-29T08:59:49;1.77;;;0.75;;
11827;SDS011;5971;49.646;8.568;2023-07-29T09:02:50;3.03;;;1.00;;
11827;SDS011;5971;49.646;8.568;2023-07-29T09:05:52;1.33;;;0.93;;
11827;SDS011;5971;49.646;8.568;2023-07-29T09:08:54;2.65;;;1.17;;
11827;SDS011;5971;49.646;8.568;2023-07-29T09:11:57;2.92;;;1.00;;
11827;SDS011;5971;49.646;8.568;2023-07-29T09:14:58;1.70;;;1.00;;
11827;SDS011;5971;49.646;8.568;2023-07-29T09:18:08;2.97;;;1.00;;
11827;SDS011;5971;49.646;8.568;2023-07-29T09:21:10;1.83;;;0.90;;
11827;SDS011;5971;49.646;8.568;2023-07-29T09:24:12;2.00;;;0.93;;
11827;SDS011;5971;49.646;8.568;2023-07-29T09:27:23;1.90;;;1.05;;
11827;SDS011;5971;49.646;8.568;2023-07-29T09:30:24;2.22;;;1.23;;
11827;SDS011;5971;49.646;8.568;2023-07-29T09:33:26;2.55;;;1.45;;
11827;SDS011;5971;49.646;8.568;2023-07-29T09:36:30;2.78;;;1.52;;
11827;SDS011;5971;49.646;8.568;2023-07-29T09:39:32;2.13;;;1.13;;
11827;SDS011;5971;49.646;8.568;2023-07-29T09:42:33;1.95;;;1.10;;
11827;SDS011;5971;49.646;8.568;2023-07-29T09:45:35;3.13;;;1.13;;
11827;SDS011;5971;49.646;8.568;2023-07-29T09:48:37;1.77;;;1.00;;
11827;SDS011;5971;49.646;8.568;2023-07-29T09:51:39;2.47;;;1.00;;
11827;SDS011;5971;49.646;8.568;2023-07-29T09:54:41;2.00;;;1.20;;
11827;SDS011;5971;49.646;8.568;2023-07-29T09:57:43;1.95;;;1.10;;
11827;SDS011;5971;49.646;8.568;2023-07-29T10:00:45;2.17;;;1.40;;
11827;SDS011;5971;49.646;8.568;2023-07-29T10:03:47;2.20;;;1.42;;
11827;SDS011;5971;49.646;8.568;2023-07-29T10:06:50;2.60;;;1.25;;
11827;SDS011;5971;49.646;8.568;2023-07-29T10:09:51;2.10;;;1.20;;
11827;SDS011;5971;49.646;8.568;2023-07-29T10:12:54;1.80;;;1.20;;
11827;SDS011;5971;49.646;8.568;2023-07-29T10:15:55;2.05;;;1.20;;
11827;SDS011;5971;49.646;8.568;2023-07-29T10:18:57;2.40;;;1.42;;
11827;SDS011;5971;49.646;8.568;2023-07-29T10:21:59;3.42;;;1.33;;
11827;SDS011;5971;49.646;8.568;2023-07-29T10:25:17;2.47;;;1.42;;
11827;SDS011;5971;49.646;8.568;2023-07-29T10:28:19;3.33;;;1.58;;
11827;SDS011;5971;49.646;8.568;2023-07-29T10:31:22;2.33;;;1.33;;
11827;SDS011;5971;49.646;8.568;2023-07-29T10:34:24;2.90;;;1.55;;
11827;SDS011;5971;49.646;8.568;2023-07-29T10:37:28;2.40;;;1.38;;
11827;SDS011;5971;49.646;8.568;2023-07-29T10:40:49;2.72;;;1.60;;
11827;SDS011;5971;49.646;8.568;2023-07-29T10:43:51;3.88;;;1.92;;
11827;SDS011;5971;49.646;8.568;2023-07-29T10:46:52;2.90;;;1.77;;
11827;SDS011;5971;49.646;8.568;2023-07-29T10:49:55;2.70;;;1.60;;
11827;SDS011;5971;49.646;8.568;2023-07-29T10:52:57;2.88;;;1.40;;
11827;SDS011;5971;49.646;8.568;2023-07-29T10:55:58;3.30;;;1.20;;
11827;SDS011;5971;49.646;8.568;2023-07-29T11:02:17;2.38;;;1.50;;
11827;SDS011;5971;49.646;8.568;2023-07-29T11:05:19;2.50;;;1.40;;
11827;SDS011;5971;49.646;8.568;2023-07-29T11:08:22;2.70;;;1.63;;
11827;SDS011;5971;49.646;8.568;2023-07-29T11:11:23;2.33;;;1.42;;
11827;SDS011;5971;49.646;8.568;2023-07-29T11:14:28;2.42;;;1.50;;
11827;SDS011;5971;49.646;8.568;2023-07-29T11:17:31;3.10;;;1.73;;
11827;SDS011;5971;49.646;8.568;2023-07-29T11:20:33;2.35;;;1.55;;
11827;SDS011;5971;49.646;8.568;2023-07-29T11:23:36;2.80;;;1.50;;
11827;SDS011;5971;49.646;8.568;2023-07-29T11:26:37;2.58;;;1.45;;
11827;SDS011;5971;49.646;8.568;2023-07-29T11:29:47;7.00;;;1.67;;
11827;SDS011;5971;49.646;8.568;2023-07-29T11:32:48;2.58;;;1.40;;
11827;SDS011;5971;49.646;8.568;2023-07-29T11:35:50;3.78;;;1.60;;
11827;SDS011;5971;49.646;8.568;2023-07-29T11:38:51;2.30;;;1.30;;
11827;SDS011;5971;49.646;8.568;2023-07-29T11:41:53;2.55;;;1.83;;
11827;SDS011;5971;49.646;8.568;2023-07-29T11:44:57;2.33;;;1.60;;
11827;SDS011;5971;49.646;8.568;2023-07-29T11:48:01;1.98;;;1.20;;
11827;SDS011;5971;49.646;8.568;2023-07-29T11:54:04;2.60;;;1.50;;
11827;SDS011;5971;49.646;8.568;2023-07-29T11:57:06;2.55;;;1.40;;
11827;SDS011;5971;49.646;8.568;2023-07-29T12:03:11;3.42;;;1.63;;
11827;SDS011;5971;49.646;8.568;2023-07-29T12:06:13;2.58;;;1.35;;
11827;SDS011;5971;49.646;8.568;2023-07-29T12:09:14;1.90;;;1.23;;
11827;SDS011;5971;49.646;8.568;2023-07-29T12:12:16;2.00;;;1.35;;
11827;SDS011;5971;49.646;8.568;2023-07-29T12:15:24;2.28;;;1.30;;
11827;SDS011;5971;49.646;8.568;2023-07-29T12:18:29;3.90;;;1.35;;
11827;SDS011;5971;49.646;8.568;2023-07-29T12:21:31;2.15;;;1.40;;
11827;SDS011;5971;49.646;8.568;2023-07-29T12:24:33;2.78;;;1.58;;
11827;SDS011;5971;49.646;8.568;2023-07-29T12:27:34;2.45;;;1.48;;
11827;SDS011;5971;49.646;8.568;2023-07-29T12:30:41;2.30;;;1.42;;
11827;SDS011;5971;49.646;8.568;2023-07-29T12:33:42;2.42;;;1.40;;
11827;SDS011;5971;49.646;8.568;2023-07-29T12:36:44;2.40;;;1.30;;
11827;SDS011;5971;49.646;8.568;2023-07-29T12:39:49;2.22;;;1.50;;
11827;SDS011;5971;49.646;8.568;2023-07-29T12:42:51;2.75;;;1.40;;
11827;SDS011;5971;49.646;8.568;2023-07-29T12:45:52;3.67;;;1.25;;
11827;SDS011;5971;49.646;8.568;2023-07-29T12:48:54;2.30;;;1.40;;
11827;SDS011;5971;49.646;8.568;2023-07-29T12:51:58;2.67;;;1.30;;
11827;SDS011;5971;49.646;8.568;2023-07-29T12:55:00;3.45;;;1.60;;
11827;SDS011;5971;49.646;8.568;2023-07-29T12:58:01;2.63;;;1.52;;
11827;SDS011;5971;49.646;8.568;2023-07-29T13:01:03;2.35;;;1.27;;
11827;SDS011;5971;49.646;8.568;2023-07-29T13:04:04;2.50;;;1.67;;
11827;SDS011;5971;49.646;8.568;2023-07-29T13:07:06;2.70;;;1.33;;
11827;SDS011;5971;49.646;8.568;2023-07-29T13:10:08;2.60;;;1.33;;
11827;SDS011;5971;49.646;8.568;2023-07-29T13:13:09;2.85;;;1.52;;
11827;SDS011;5971;49.646;8.568;2023-07-29T13:16:11;2.22;;;1.38;;
11827;SDS011;5971;49.646;8.568;2023-07-29T13:19:12;3.08;;;1.33;;
11827;SDS011;5971;49.646;8.568;2023-07-29T13:22:14;1.75;;;1.23;;
11827;SDS011;5971;49.646;8.568;2023-07-29T13:25:15;2.20;;;1.30;;
11827;SDS011;5971;49.646;8.568;2023-07-29T13:28:16;1.98;;;1.20;;
11827;SDS011;5971;49.646;8.568;2023-07-29T13:31:18;1.85;;;1.10;;
11827;SDS011;5971;49.646;8.568;2023-07-29T13:34:19;2.20;;;1.20;;
11827;SDS011;5971;49.646;8.568;2023-07-29T13:37:21;2.22;;;1.20;;
11827;SDS011;5971;49.646;8.568;2023-07-29T13:40:22;1.88;;;1.10;;
11827;SDS011;5971;49.646;8.568;2023-07-29T13:43:24;2.30;;;1.50;;
11827;SDS011;5971;49.646;8.568;2023-07-29T13:46:25;2.65;;;1.20;;
11827;SDS011;5971;49.646;8.568;2023-07-29T13:49:26;2.58;;;1.23;;
11827;SDS011;5971;49.646;8.568;2023-07-29T13:52:28;2.35;;;1.30;;
11827;SDS011;5971;49.646;8.568;2023-07-29T13:55:29;3.05;;;1.27;;
11827;SDS011;5971;49.646;8.568;2023-07-29T13:58:31;3.50;;;1.20;;
11827;SDS011;5971;49.646;8.568;2023-07-29T14:01:32;2.80;;;1.45;;
11827;SDS011;5971;49.646;8.568;2023-07-29T14:04:33;2.20;;;1.33;;
11827;SDS011;5971;49.646;8.568;2023-07-29T14:07:35;2.20;;;1.30;;
11827;SDS011;5971;49.646;8.568;2023-07-29T14:10:36;2.58;;;1.33;;
11827;SDS011;5971;49.646;8.568;2023-07-29T14:13:38;2.65;;;1.35;;
11827;SDS011;5971;49.646;8.568;2023-07-29T14:16:39;2.85;;;1.33;;
11827;SDS011;5971;49.646;8.568;2023-07-29T14:19:41;2.67;;;1.48;;
11827;SDS011;5971;49.646;8.568;2023-07-29T14:22:42;2.42;;;1.27;;
11827;SDS011;5971;49.646;8.568;2023-07-29T14:25:43;2.10;;;1.33;;
11827;SDS011;5971;49.646;8.568;2023-07-29T14:28:45;2.45;;;1.27;;
11827;SDS011;5971;49.646;8.568;2023-07-29T14:31:46;2.13;;;1.20;;
11827;SDS011;5971;49.646;8.568;2023-07-29T14:34:48;3.60;;;2.80;;
11827;SDS011;5971;49.646;8.568;2023-07-29T14:37:50;2.30;;;1.33;;
11827;SDS011;5971;49.646;8.568;2023-07-29T14:40:51;1.83;;;1.17;;
11827;SDS011;5971;49.646;8.568;2023-07-29T14:43:55;2.00;;;1.42;;
11827;SDS011;5971;49.646;8.568;2023-07-29T14:46:56;3.15;;;1.25;;
11827;SDS011;5971;49.646;8.568;2023-07-29T14:49:58;2.05;;;1.20;;
11827;SDS011;5971;49.646;8.568;2023-07-29T14:52:59;2.38;;;1.25;;
11827;SDS011;5971;49.646;8.568;2023-07-29T14:56:01;2.08;;;1.45;;
11827;SDS011;5971;49.646;8.568;2023-07-29T14:59:02;2.10;;;1.20;;
11827;SDS011;5971;49.646;8.568;2023-07-29T15:02:06;2.00;;;1.27;;
11827;SDS011;5971;49.646;8.568;2023-07-29T15:05:08;2.13;;;1.30;;
11827;SDS011;5971;49.646;8.568;2023-07-29T15:08:09;2.65;;;1.55;;
11827;SDS011;5971;49.646;8.568;2023-07-29T15:11:11;4.82;;;4.32;;
11827;SDS011;5971;49.646;8.568;2023-07-29T15:14:12;2.42;;;1.48;;
11827;SDS011;5971;49.646;8.568;2023-07-29T15:17:14;2.30;;;1.50;;
11827;SDS011;5971;49.646;8.568;2023-07-29T15:20:15;3.25;;;1.50;;
11827;SDS011;5971;49.646;8.568;2023-07-29T15:23:17;3.60;;;1.65;;
11827;SDS011;5971;49.646;8.568;2023-07-29T15:26:19;2.47;;;1.42;;
11827;SDS011;5971;49.646;8.568;2023-07-29T15:29:21;2.60;;;1.48;;
11827;SDS011;5971;49.646;8.568;2023-07-29T15:32:22;2.35;;;1.40;;
11827;SDS011;5971;49.646;8.568;2023-07-29T15:35:24;3.70;;;1.40;;
11827;SDS011;5971;49.646;8.568;2023-07-29T15:38:25;2.60;;;1.52;;
11827;SDS011;5971;49.646;8.568;2023-07-29T15:41:27;2.28;;;1.27;;
11827;SDS011;5971;49.646;8.568;2023-07-29T15:44:28;2.08;;;1.20;;
11827;SDS011;5971;49.646;8.568;2023-07-29T15:47:30;2.60;;;1.42;;
11827;SDS011;5971;49.646;8.568;2023-07-29T15:50:31;2.50;;;1.35;;
11827;SDS011;5971;49.646;8.568;2023-07-29T15:53:33;2.28;;;1.20;;
11827;SDS011;5971;49.646;8.568;2023-07-29T15:56:34;3.22;;;1.52;;
11827;SDS011;5971;49.646;8.568;2023-07-29T15:59:38;2.70;;;1.42;;
11827;SDS011;5971;49.646;8.568;2023-07-29T16:02:39;2.38;;;1.50;;
11827;SDS011;5971;49.646;8.568;2023-07-29T16:05:41;4.47;;;1.60;;
11827;SDS011;5971;49.646;8.568;2023-07-29T16:08:42;2.70;;;1.23;;
11827;SDS011;5971;49.646;8.568;2023-07-29T16:11:44;2.67;;;1.60;;
11827;SDS011;5971;49.646;8.568;2023-07-29T16:14:45;2.70;;;1.40;;
11827;SDS011;5971;49.646;8.568;2023-07-29T16:17:46;2.45;;;1.67;;
11827;SDS011;5971;49.646;8.568;2023-07-29T16:20:52;3.50;;;1.38;;
11827;SDS011;5971;49.646;8.568;2023-07-29T16:23:54;2.17;;;1.33;;
11827;SDS011;5971;49.646;8.568;2023-07-29T16:26:55;2.97;;;1.70;;
11827;SDS011;5971;49.646;8.568;2023-07-29T16:30:00;2.90;;;1.63;;
11827;SDS011;5971;49.646;8.568;2023-07-29T16:33:02;3.17;;;2.78;;
11827;SDS011;5971;49.646;8.568;2023-07-29T16:36:04;2.63;;;1.63;;
11827;SDS011;5971;49.646;8.568;2023-07-29T16:39:06;2.67;;;1.50;;
11827;SDS011;5971;49.646;8.568;2023-07-29T16:42:07;2.47;;;1.52;;
11827;SDS011;5971;49.646;8.568;2023-07-29T16:45:09;3.15;;;1.55;;
11827;SDS011;5971;49.646;8.568;2023-07-29T16:48:10;2.90;;;1.50;;
11827;SDS011;5971;49.646;8.568;2023-07-29T16:51:12;2.65;;;1.50;;
11827;SDS011;5971;49.646;8.568;2023-07-29T16:54:13;2.60;;;1.58;;
11827;SDS011;5971;49.646;8.568;2023-07-29T16:57:18;3.13;;;1.77;;
11827;SDS011;5971;49.646;8.568;2023-07-29T17:00:20;3.13;;;1.48;;
11827;SDS011;5971;49.646;8.568;2023-07-29T17:03:21;2.75;;;1.63;;
11827;SDS011;5971;49.646;8.568;2023-07-29T17:06:23;3.30;;;1.65;;
11827;SDS011;5971;49.646;8.568;2023-07-29T17:09:24;2.70;;;1.45;;
11827;SDS011;5971;49.646;8.568;2023-07-29T17:12:26;3.72;;;1.70;;
11827;SDS011;5971;49.646;8.568;2023-07-29T17:15:27;3.55;;;1.90;;
11827;SDS011;5971;49.646;8.568;2023-07-29T17:18:28;2.50;;;1.33;;
11827;SDS011;5971;49.646;8.568;2023-07-29T17:21:30;2.35;;;1.42;;
11827;SDS011;5971;49.646;8.568;2023-07-29T17:24:31;2.88;;;1.40;;
11827;SDS011;5971;49.646;8.568;2023-07-29T17:27:33;2.38;;;1.40;;
11827;SDS011;5971;49.646;8.568;2023-07-29T17:30:34;4.15;;;1.80;;
11827;SDS011;5971;49.646;8.568;2023-07-29T17:33:38;3.35;;;1.42;;
11827;SDS011;5971;49.646;8.568;2023-07-29T17:36:40;2.85;;;1.70;;
11827;SDS011;5971;49.646;8.568;2023-07-29T17:39:41;3.10;;;1.70;;
11827;SDS011;5971;49.646;8.568;2023-07-29T17:42:43;3.17;;;1.60;;
11827;SDS011;5971;49.646;8.568;2023-07-29T17:45:44;2.60;;;1.50;;
11827;SDS011;5971;49.646;8.568;2023-07-29T17:48:47;3.63;;;1.80;;
11827;SDS011;5971;49.646;8.568;2023-07-29T17:51:48;3.20;;;1.85;;
11827;SDS011;5971;49.646;8.568;2023-07-29T17:54:51;2.97;;;1.83;;
11827;SDS011;5971;49.646;8.568;2023-07-29T17:57:52;4.18;;;1.90;;
11827;SDS011;5971;49.646;8.568;2023-07-29T18:00:54;3.42;;;1.77;;
11827;SDS011;5971;49.646;8.568;2023-07-29T18:03:59;2.83;;;1.50;;
11827;SDS011;5971;49.646;8.568;2023-07-29T18:07:00;3.28;;;1.60;;
11827;SDS011;5971;49.646;8.568;2023-07-29T18:10:02;2.92;;;1.80;;
11827;SDS011;5971;49.646;8.568;2023-07-29T18:13:06;2.90;;;2.10;;
11827;SDS011;5971;49.646;8.568;2023-07-29T18:16:09;3.17;;;1.60;;
11827;SDS011;5971;49.646;8.568;2023-07-29T18:19:17;3.22;;;2.17;;
11827;SDS011;5971;49.646;8.568;2023-07-29T18:22:22;2.53;;;1.48;;
11827;SDS011;5971;49.646;8.568;2023-07-29T18:25:23;3.50;;;2.00;;
11827;SDS011;5971;49.646;8.568;2023-07-29T18:28:27;3.72;;;2.22;;
11827;SDS011;5971;49.646;8.568;2023-07-29T18:31:30;3.30;;;2.13;;
11827;SDS011;5971;49.646;8.568;2023-07-29T18:34:33;3.20;;;1.80;;
11827;SDS011;5971;49.646;8.568;2023-07-29T18:37:35;2.90;;;1.75;;
11827;SDS011;5971;49.646;8.568;2023-07-29T18:40:37;3.25;;;2.33;;
11827;SDS011;5971;49.646;8.568;2023-07-29T18:43:39;3.22;;;2.28;;
11827;SDS011;5971;49.646;8.568;2023-07-29T18:46:40;3.75;;;1.63;;
11827;SDS011;5971;49.646;8.568;2023-07-29T18:49:42;2.95;;;1.83;;
11827;SDS011;5971;49.646;8.568;2023-07-29T18:52:44;4.85;;;1.80;;
11827;SDS011;5971;49.646;8.568;2023-07-29T18:55:45;4.30;;;1.80;;